sensor_id;sensor_type;location;lat;lon;timestamp;temperature;humidity
20463;DHT22;10390;53.566;9.980;2024-03-08T00:01:11;23.80;1.00
20463;DHT22;10390;53.566;9.980;2024-03-08T00:03:36;23.80;1.00
20463;DHT22;10390;53.566;9.980;2024-03-08T00:06:02;23.80;1.00
20463;DHT22;10390;53.566;9.980;2024-03-08T00:08:28;23.80;1.00
20463;DHT22;10390;53.566;9.980;2024-03-08T00:10:53;23.80;1.00
20463;DHT22;10390;53.566;9.980;2024-03-08T00:13:19;23.80;1.00
20463;DHT22;10390;53.566;9.980;2024-03-08T00:15:45;23.80;1.00
20463;DHT22;10390;53.566;9.980;2024-03-08T00:18:11;23.80;1.00
20463;DHT22;10390;53.566;9.980;2024-03-08T00:20:36;23.80;1.00
20463;DHT22;10390;53.566;9.980;2024-03-08T00:23:02;23.80;1.00
20463;DHT22;10390;53.566;9.980;2024-03-08T00:25:28;23.80;1.00
20463;DHT22;10390;53.566;9.980;2024-03-08T00:27:53;23.80;1.00
20463;DHT22;10390;53.566;9.980;2024-03-08T00:30:22;23.80;1.00
20463;DHT22;10390;53.566;9.980;2024-03-08T00:32:48;23.80;1.00
20463;DHT22;10390;53.566;9.980;2024-03-08T00:35:14;23.80;1.00
20463;DHT22;10390;53.566;9.980;2024-03-08T00:37:40;23.80;1.00
20463;DHT22;10390;53.566;9.980;2024-03-08T00:40:07;23.80;1.00
20463;DHT22;10390;53.566;9.980;2024-03-08T00:42:34;23.80;1.00
20463;DHT22;10390;53.566;9.980;2024-03-08T00:45:00;23.80;1.00
20463;DHT22;10390;53.566;9.980;2024-03-08T00:47:26;23.80;1.00
20463;DHT22;10390;53.566;9.980;2024-03-08T00:49:52;23.80;1.00
20463;DHT22;10390;53.566;9.980;2024-03-08T00:52:18;23.80;1.00
20463;DHT22;10390;53.566;9.980;2024-03-08T00:54:44;23.80;1.00
20463;DHT22;10390;53.566;9.980;2024-03-08T00:57:10;23.80;1.00
20463;DHT22;10390;53.566;9.980;2024-03-08T00:59:38;23.80;1.00
20463;DHT22;10390;53.566;9.980;2024-03-08T01:02:03;23.80;1.00
20463;DHT22;10390;53.566;9.980;2024-03-08T01:04:29;23.70;1.00
20463;DHT22;10390;53.566;9.980;2024-03-08T01:06:55;23.80;1.00
20463;DHT22;10390;53.566;9.980;2024-03-08T01:09:25;23.70;1.00
20463;DHT22;10390;53.566;9.980;2024-03-08T01:11:52;23.70;1.00
20463;DHT22;10390;53.566;9.980;2024-03-08T01:14:20;23.70;1.00
20463;DHT22;10390;53.566;9.980;2024-03-08T01:16:48;23.70;1.00
20463;DHT22;10390;53.566;9.980;2024-03-08T01:19:13;23.70;1.00
20463;DHT22;10390;53.566;9.980;2024-03-08T01:21:40;23.70;1.00
20463;DHT22;10390;53.566;9.980;2024-03-08T01:24:05;23.70;1.00
20463;DHT22;10390;53.566;9.980;2024-03-08T01:26:31;23.70;1.00
20463;DHT22;10390;53.566;9.980;2024-03-08T01:28:56;23.70;1.00
20463;DHT22;10390;53.566;9.980;2024-03-08T01:31:22;23.70;1.00
20463;DHT22;10390;53.566;9.980;2024-03-08T01:33:47;23.70;1.00
20463;DHT22;10390;53.566;9.980;2024-03-08T01:36:15;23.70;1.00
20463;DHT22;10390;53.566;9.980;2024-03-08T01:38:42;23.80;1.00
20463;DHT22;10390;53.566;9.980;2024-03-08T01:41:07;23.80;1.00
20463;DHT22;10390;53.566;9.980;2024-03-08T01:43:34;23.80;1.00
20463;DHT22;10390;53.566;9.980;2024-03-08T01:46:00;23.80;1.00
20463;DHT22;10390;53.566;9.980;2024-03-08T01:48:27;23.80;1.00
20463;DHT22;10390;53.566;9.980;2024-03-08T01:50:55;23.80;1.00
20463;DHT22;10390;53.566;9.980;2024-03-08T01:53:22;23.80;1.00
20463;DHT22;10390;53.566;9.980;2024-03-08T01:55:49;23.80;1.00
20463;DHT22;10390;53.566;9.980;2024-03-08T01:58:15;23.80;1.00
20463;DHT22;10390;53.566;9.980;2024-03-08T02:00:44;23.80;1.00
20463;DHT22;10390;53.566;9.980;2024-03-08T02:03:11;23.80;1.00
20463;DHT22;10390;53.566;9.980;2024-03-08T02:05:41;23.80;1.00
20463;DHT22;10390;53.566;9.980;2024-03-08T02:08:07;23.80;1.00
20463;DHT22;10390;53.566;9.980;2024-03-08T02:10:38;23.90;1.00
20463;DHT22;10390;53.566;9.980;2024-03-08T02:13:04;23.80;1.00
20463;DHT22;10390;53.566;9.980;2024-03-08T02:18:17;23.70;1.00
20463;DHT22;10390;53.566;9.980;2024-03-08T02:20:43;23.70;1.00
20463;DHT22;10390;53.566;9.980;2024-03-08T02:23:09;23.70;1.00
20463;DHT22;10390;53.566;9.980;2024-03-08T02:25:35;23.70;1.00
20463;DHT22;10390;53.566;9.980;2024-03-08T02:28:01;23.70;1.00
20463;DHT22;10390;53.566;9.980;2024-03-08T02:30:26;23.70;1.00
20463;DHT22;10390;53.566;9.980;2024-03-08T02:32:55;23.70;1.00
20463;DHT22;10390;53.566;9.980;2024-03-08T02:35:21;23.70;1.00
20463;DHT22;10390;53.566;9.980;2024-03-08T02:37:47;23.70;1.00
20463;DHT22;10390;53.566;9.980;2024-03-08T02:40:13;23.70;1.00
20463;DHT22;10390;53.566;9.980;2024-03-08T02:42:39;23.70;1.00
20463;DHT22;10390;53.566;9.980;2024-03-08T02:45:05;23.70;1.00
20463;DHT22;10390;53.566;9.980;2024-03-08T02:47:31;23.80;1.00
20463;DHT22;10390;53.566;9.980;2024-03-08T02:49:57;23.70;1.00
20463;DHT22;10390;53.566;9.980;2024-03-08T02:52:22;23.70;1.00
20463;DHT22;10390;53.566;9.980;2024-03-08T02:54:48;23.70;1.00
20463;DHT22;10390;53.566;9.980;2024-03-08T02:57:14;23.70;1.00
20463;DHT22;10390;53.566;9.980;2024-03-08T02:59:40;23.80;1.00
20463;DHT22;10390;53.566;9.980;2024-03-08T03:02:06;23.80;1.00
20463;DHT22;10390;53.566;9.980;2024-03-08T03:04:32;23.70;1.00
20463;DHT22;10390;53.566;9.980;2024-03-08T03:07:00;23.70;1.00
20463;DHT22;10390;53.566;9.980;2024-03-08T03:09:26;23.80;1.00
20463;DHT22;10390;53.566;9.980;2024-03-08T03:11:53;23.70;1.00
20463;DHT22;10390;53.566;9.980;2024-03-08T03:14:21;23.70;1.00
20463;DHT22;10390;53.566;9.980;2024-03-08T03:16:47;23.80;1.00
20463;DHT22;10390;53.566;9.980;2024-03-08T03:19:12;23.80;1.00
20463;DHT22;10390;53.566;9.980;2024-03-08T03:21:38;23.80;1.00
20463;DHT22;10390;53.566;9.980;2024-03-08T03:24:04;23.70;1.00
20463;DHT22;10390;53.566;9.980;2024-03-08T03:26:38;23.70;1.00
20463;DHT22;10390;53.566;9.980;2024-03-08T03:29:07;23.70;1.00
20463;DHT22;10390;53.566;9.980;2024-03-08T03:31:35;23.70;1.00
20463;DHT22;10390;53.566;9.980;2024-03-08T03:34:01;23.70;1.00
20463;DHT22;10390;53.566;9.980;2024-03-08T03:36:32;23.70;1.00
20463;DHT22;10390;53.566;9.980;2024-03-08T03:38:58;23.70;1.00
20463;DHT22;10390;53.566;9.980;2024-03-08T03:41:36;23.70;1.00
20463;DHT22;10390;53.566;9.980;2024-03-08T03:44:02;23.70;1.00
20463;DHT22;10390;53.566;9.980;2024-03-08T03:46:27;23.70;1.00
20463;DHT22;10390;53.566;9.980;2024-03-08T03:48:54;23.70;1.00
20463;DHT22;10390;53.566;9.980;2024-03-08T03:51:21;23.80;1.00
20463;DHT22;10390;53.566;9.980;2024-03-08T03:53:46;23.80;1.00
20463;DHT22;10390;53.566;9.980;2024-03-08T03:56:12;23.80;1.00
20463;DHT22;10390;53.566;9.980;2024-03-08T03:58:38;23.80;1.00
20463;DHT22;10390;53.566;9.980;2024-03-08T04:01:05;23.80;1.00
20463;DHT22;10390;53.566;9.980;2024-03-08T04:03:31;23.80;1.00
20463;DHT22;10390;53.566;9.980;2024-03-08T04:05:56;23.80;1.00
20463;DHT22;10390;53.566;9.980;2024-03-08T04:08:22;23.80;1.00
20463;DHT22;10390;53.566;9.980;2024-03-08T04:10:50;23.80;1.00
20463;DHT22;10390;53.566;9.980;2024-03-08T04:13:16;23.80;1.00
20463;DHT22;10390;53.566;9.980;2024-03-08T04:15:42;23.80;1.00
20463;DHT22;10390;53.566;9.980;2024-03-08T04:18:09;23.80;1.00
20463;DHT22;10390;53.566;9.980;2024-03-08T04:20:35;23.80;1.00
20463;DHT22;10390;53.566;9.980;2024-03-08T04:23:02;23.80;1.00
20463;DHT22;10390;53.566;9.980;2024-03-08T04:25:27;23.80;1.00
20463;DHT22;10390;53.566;9.980;2024-03-08T04:27:53;23.80;1.00
20463;DHT22;10390;53.566;9.980;2024-03-08T04:30:18;23.80;1.00
20463;DHT22;10390;53.566;9.980;2024-03-08T04:32:46;23.80;1.00
20463;DHT22;10390;53.566;9.980;2024-03-08T04:35:12;23.80;1.00
20463;DHT22;10390;53.566;9.980;2024-03-08T04:37:38;23.80;1.00
20463;DHT22;10390;53.566;9.980;2024-03-08T04:40:05;23.70;1.00
20463;DHT22;10390;53.566;9.980;2024-03-08T04:42:31;23.70;1.00
20463;DHT22;10390;53.566;9.980;2024-03-08T04:44:58;23.70;1.00
20463;DHT22;10390;53.566;9.980;2024-03-08T04:47:24;23.60;1.00
20463;DHT22;10390;53.566;9.980;2024-03-08T04:49:50;23.70;1.00
20463;DHT22;10390;53.566;9.980;2024-03-08T04:52:16;23.70;1.00
20463;DHT22;10390;53.566;9.980;2024-03-08T04:54:42;23.70;1.00
20463;DHT22;10390;53.566;9.980;2024-03-08T04:57:08;23.70;1.00
20463;DHT22;10390;53.566;9.980;2024-03-08T04:59:33;23.70;1.00
20463;DHT22;10390;53.566;9.980;2024-03-08T05:01:59;23.70;1.00
20463;DHT22;10390;53.566;9.980;2024-03-08T05:04:25;23.70;1.00
20463;DHT22;10390;53.566;9.980;2024-03-08T05:06:50;23.70;1.00
20463;DHT22;10390;53.566;9.980;2024-03-08T05:09:16;23.80;1.00
20463;DHT22;10390;53.566;9.980;2024-03-08T05:11:43;23.70;1.00
20463;DHT22;10390;53.566;9.980;2024-03-08T05:14:12;23.70;1.00
20463;DHT22;10390;53.566;9.980;2024-03-08T05:16:42;23.70;1.00
20463;DHT22;10390;53.566;9.980;2024-03-08T05:19:08;23.80;1.00
20463;DHT22;10390;53.566;9.980;2024-03-08T05:21:34;23.80;1.00
20463;DHT22;10390;53.566;9.980;2024-03-08T05:23:59;23.80;1.00
20463;DHT22;10390;53.566;9.980;2024-03-08T05:26:25;23.80;1.00
20463;DHT22;10390;53.566;9.980;2024-03-08T05:28:50;23.70;1.00
20463;DHT22;10390;53.566;9.980;2024-03-08T05:31:22;23.80;1.00
20463;DHT22;10390;53.566;9.980;2024-03-08T05:33:48;23.80;1.00
20463;DHT22;10390;53.566;9.980;2024-03-08T05:36:14;23.80;1.00
20463;DHT22;10390;53.566;9.980;2024-03-08T05:38:45;23.80;1.00
20463;DHT22;10390;53.566;9.980;2024-03-08T05:41:11;23.80;1.00
20463;DHT22;10390;53.566;9.980;2024-03-08T05:43:40;23.80;1.00
20463;DHT22;10390;53.566;9.980;2024-03-08T05:46:06;23.80;1.00
20463;DHT22;10390;53.566;9.980;2024-03-08T05:48:31;23.80;1.00
20463;DHT22;10390;53.566;9.980;2024-03-08T05:50:58;23.70;1.00
20463;DHT22;10390;53.566;9.980;2024-03-08T05:53:23;23.70;1.00
20463;DHT22;10390;53.566;9.980;2024-03-08T05:55:49;23.70;1.00
20463;DHT22;10390;53.566;9.980;2024-03-08T05:58:15;23.60;1.00
20463;DHT22;10390;53.566;9.980;2024-03-08T06:00:40;23.60;1.00
20463;DHT22;10390;53.566;9.980;2024-03-08T06:03:06;23.60;1.00
20463;DHT22;10390;53.566;9.980;2024-03-08T06:05:33;23.60;1.00
20463;DHT22;10390;53.566;9.980;2024-03-08T06:07:59;23.60;1.00
20463;DHT22;10390;53.566;9.980;2024-03-08T06:10:24;23.70;1.00
20463;DHT22;10390;53.566;9.980;2024-03-08T06:12:50;23.60;1.00
20463;DHT22;10390;53.566;9.980;2024-03-08T06:15:17;23.70;1.00
20463;DHT22;10390;53.566;9.980;2024-03-08T06:17:42;23.70;1.00
20463;DHT22;10390;53.566;9.980;2024-03-08T06:20:08;23.70;1.00
20463;DHT22;10390;53.566;9.980;2024-03-08T06:22:38;23.70;1.00
20463;DHT22;10390;53.566;9.980;2024-03-08T06:25:12;23.70;1.00
20463;DHT22;10390;53.566;9.980;2024-03-08T06:27:42;23.70;1.00
20463;DHT22;10390;53.566;9.980;2024-03-08T06:30:12;23.70;1.00
20463;DHT22;10390;53.566;9.980;2024-03-08T06:32:38;23.70;1.00
20463;DHT22;10390;53.566;9.980;2024-03-08T06:35:05;23.80;1.00
20463;DHT22;10390;53.566;9.980;2024-03-08T06:37:32;23.80;1.00
20463;DHT22;10390;53.566;9.980;2024-03-08T06:39:58;23.80;1.00
20463;DHT22;10390;53.566;9.980;2024-03-08T06:42:24;23.80;1.00
20463;DHT22;10390;53.566;9.980;2024-03-08T06:44:49;23.90;1.00
20463;DHT22;10390;53.566;9.980;2024-03-08T06:47:15;23.80;1.00
20463;DHT22;10390;53.566;9.980;2024-03-08T06:49:44;23.80;1.00
20463;DHT22;10390;53.566;9.980;2024-03-08T06:52:10;23.90;1.00
20463;DHT22;10390;53.566;9.980;2024-03-08T06:54:37;23.90;1.00
20463;DHT22;10390;53.566;9.980;2024-03-08T06:57:05;23.90;1.00
20463;DHT22;10390;53.566;9.980;2024-03-08T06:59:32;23.90;1.00
20463;DHT22;10390;53.566;9.980;2024-03-08T07:01:57;24.00;1.00
20463;DHT22;10390;53.566;9.980;2024-03-08T07:04:25;24.00;1.00
20463;DHT22;10390;53.566;9.980;2024-03-08T07:06:54;23.90;1.00
20463;DHT22;10390;53.566;9.980;2024-03-08T07:09:19;24.00;1.00
20463;DHT22;10390;53.566;9.980;2024-03-08T07:11:45;24.00;1.00
20463;DHT22;10390;53.566;9.980;2024-03-08T07:14:12;24.00;1.00
20463;DHT22;10390;53.566;9.980;2024-03-08T07:16:40;23.90;1.00
20463;DHT22;10390;53.566;9.980;2024-03-08T07:19:07;23.90;1.00
20463;DHT22;10390;53.566;9.980;2024-03-08T07:21:32;23.90;1.00
20463;DHT22;10390;53.566;9.980;2024-03-08T07:23:58;23.90;1.00
20463;DHT22;10390;53.566;9.980;2024-03-08T07:26:26;23.90;1.00
20463;DHT22;10390;53.566;9.980;2024-03-08T07:28:52;23.90;1.00
20463;DHT22;10390;53.566;9.980;2024-03-08T07:31:19;23.90;1.00
20463;DHT22;10390;53.566;9.980;2024-03-08T07:33:51;23.90;1.00
20463;DHT22;10390;53.566;9.980;2024-03-08T07:36:18;24.00;1.00
20463;DHT22;10390;53.566;9.980;2024-03-08T07:38:44;24.00;1.00
20463;DHT22;10390;53.566;9.980;2024-03-08T07:41:12;24.00;1.00
20463;DHT22;10390;53.566;9.980;2024-03-08T07:43:38;24.10;1.00
20463;DHT22;10390;53.566;9.980;2024-03-08T07:46:04;24.10;1.00
20463;DHT22;10390;53.566;9.980;2024-03-08T07:48:29;24.10;1.00
20463;DHT22;10390;53.566;9.980;2024-03-08T07:50:56;24.20;1.00
20463;DHT22;10390;53.566;9.980;2024-03-08T07:53:21;24.20;1.00
20463;DHT22;10390;53.566;9.980;2024-03-08T07:55:47;24.20;1.00
20463;DHT22;10390;53.566;9.980;2024-03-08T07:58:12;24.20;1.00
20463;DHT22;10390;53.566;9.980;2024-03-08T08:00:39;24.30;1.00
20463;DHT22;10390;53.566;9.980;2024-03-08T08:03:05;24.30;1.00
20463;DHT22;10390;53.566;9.980;2024-03-08T08:05:31;24.30;1.00
20463;DHT22;10390;53.566;9.980;2024-03-08T08:08:01;24.40;1.00
20463;DHT22;10390;53.566;9.980;2024-03-08T08:10:29;24.40;1.00
20463;DHT22;10390;53.566;9.980;2024-03-08T08:12:55;24.50;1.00
20463;DHT22;10390;53.566;9.980;2024-03-08T08:15:22;24.50;1.00
20463;DHT22;10390;53.566;9.980;2024-03-08T08:17:48;24.50;1.00
20463;DHT22;10390;53.566;9.980;2024-03-08T08:20:14;24.50;1.00
20463;DHT22;10390;53.566;9.980;2024-03-08T08:22:41;24.60;1.00
20463;DHT22;10390;53.566;9.980;2024-03-08T08:25:09;24.50;1.00
20463;DHT22;10390;53.566;9.980;2024-03-08T08:27:38;24.60;1.00
20463;DHT22;10390;53.566;9.980;2024-03-08T08:30:05;24.60;1.00
20463;DHT22;10390;53.566;9.980;2024-03-08T08:32:36;24.70;1.00
20463;DHT22;10390;53.566;9.980;2024-03-08T08:35:03;24.70;1.00
20463;DHT22;10390;53.566;9.980;2024-03-08T08:37:30;24.70;1.00
20463;DHT22;10390;53.566;9.980;2024-03-08T08:39:56;24.70;1.00
20463;DHT22;10390;53.566;9.980;2024-03-08T08:42:23;24.70;1.00
20463;DHT22;10390;53.566;9.980;2024-03-08T08:44:48;24.70;1.00
20463;DHT22;10390;53.566;9.980;2024-03-08T08:47:16;24.80;1.00
20463;DHT22;10390;53.566;9.980;2024-03-08T08:49:44;24.80;1.00
20463;DHT22;10390;53.566;9.980;2024-03-08T08:52:11;24.90;1.00
20463;DHT22;10390;53.566;9.980;2024-03-08T08:54:37;24.90;1.00
20463;DHT22;10390;53.566;9.980;2024-03-08T08:57:03;24.90;1.00
20463;DHT22;10390;53.566;9.980;2024-03-08T08:59:35;24.90;1.00
20463;DHT22;10390;53.566;9.980;2024-03-08T09:02:02;24.90;1.00
20463;DHT22;10390;53.566;9.980;2024-03-08T09:04:29;24.90;1.00
20463;DHT22;10390;53.566;9.980;2024-03-08T09:06:56;24.90;1.00
20463;DHT22;10390;53.566;9.980;2024-03-08T09:09:22;25.00;1.00
20463;DHT22;10390;53.566;9.980;2024-03-08T09:11:48;25.00;1.00
20463;DHT22;10390;53.566;9.980;2024-03-08T09:14:15;25.00;1.00
20463;DHT22;10390;53.566;9.980;2024-03-08T09:16:40;25.00;1.00
20463;DHT22;10390;53.566;9.980;2024-03-08T09:19:06;25.00;1.00
20463;DHT22;10390;53.566;9.980;2024-03-08T09:21:32;25.10;1.00
20463;DHT22;10390;53.566;9.980;2024-03-08T09:23:58;25.10;1.00
20463;DHT22;10390;53.566;9.980;2024-03-08T09:26:24;25.10;1.00
20463;DHT22;10390;53.566;9.980;2024-03-08T09:28:49;25.10;1.00
20463;DHT22;10390;53.566;9.980;2024-03-08T09:31:15;25.10;1.00
20463;DHT22;10390;53.566;9.980;2024-03-08T09:33:42;25.10;1.00
20463;DHT22;10390;53.566;9.980;2024-03-08T09:36:08;25.10;1.00
20463;DHT22;10390;53.566;9.980;2024-03-08T09:38:34;25.10;1.00
20463;DHT22;10390;53.566;9.980;2024-03-08T09:41:02;25.10;1.00
20463;DHT22;10390;53.566;9.980;2024-03-08T09:43:29;25.10;1.00
20463;DHT22;10390;53.566;9.980;2024-03-08T09:45:57;25.10;1.00
20463;DHT22;10390;53.566;9.980;2024-03-08T09:48:23;25.20;1.00
20463;DHT22;10390;53.566;9.980;2024-03-08T09:50:48;25.20;1.00
20463;DHT22;10390;53.566;9.980;2024-03-08T09:53:15;25.20;1.00
20463;DHT22;10390;53.566;9.980;2024-03-08T09:55:42;25.20;1.00
20463;DHT22;10390;53.566;9.980;2024-03-08T09:58:15;25.20;1.00
20463;DHT22;10390;53.566;9.980;2024-03-08T10:00:47;25.20;1.00
20463;DHT22;10390;53.566;9.980;2024-03-08T10:03:12;25.20;1.00
20463;DHT22;10390;53.566;9.980;2024-03-08T10:05:40;25.20;1.00
20463;DHT22;10390;53.566;9.980;2024-03-08T10:08:06;25.20;1.00
20463;DHT22;10390;53.566;9.980;2024-03-08T10:10:35;25.20;1.00
20463;DHT22;10390;53.566;9.980;2024-03-08T10:13:01;25.20;1.00
20463;DHT22;10390;53.566;9.980;2024-03-08T10:15:29;25.20;1.00
20463;DHT22;10390;53.566;9.980;2024-03-08T10:17:58;25.20;1.00
20463;DHT22;10390;53.566;9.980;2024-03-08T10:20:24;25.20;1.00
20463;DHT22;10390;53.566;9.980;2024-03-08T10:22:50;25.20;1.00
20463;DHT22;10390;53.566;9.980;2024-03-08T10:25:16;25.20;1.00
20463;DHT22;10390;53.566;9.980;2024-03-08T10:27:42;25.20;1.00
20463;DHT22;10390;53.566;9.980;2024-03-08T10:30:14;25.20;1.00
20463;DHT22;10390;53.566;9.980;2024-03-08T10:32:41;25.20;1.00
20463;DHT22;10390;53.566;9.980;2024-03-08T10:35:10;25.20;1.00
20463;DHT22;10390;53.566;9.980;2024-03-08T10:37:45;25.20;1.00
20463;DHT22;10390;53.566;9.980;2024-03-08T10:40:16;25.20;1.00
20463;DHT22;10390;53.566;9.980;2024-03-08T10:42:57;25.20;1.00
20463;DHT22;10390;53.566;9.980;2024-03-08T10:45:39;25.20;1.00
20463;DHT22;10390;53.566;9.980;2024-03-08T10:48:26;25.20;1.00
20463;DHT22;10390;53.566;9.980;2024-03-08T10:50:53;25.20;1.00
20463;DHT22;10390;53.566;9.980;2024-03-08T10:53:19;25.20;1.00
20463;DHT22;10390;53.566;9.980;2024-03-08T10:55:49;25.20;1.00
20463;DHT22;10390;53.566;9.980;2024-03-08T10:58:20;25.20;1.00
20463;DHT22;10390;53.566;9.980;2024-03-08T11:00:47;25.20;1.00
20463;DHT22;10390;53.566;9.980;2024-03-08T11:06:15;25.20;1.00
20463;DHT22;10390;53.566;9.980;2024-03-08T11:08:41;25.20;1.00
20463;DHT22;10390;53.566;9.980;2024-03-08T11:11:23;25.10;1.00
20463;DHT22;10390;53.566;9.980;2024-03-08T11:13:53;25.20;1.00
20463;DHT22;10390;53.566;9.980;2024-03-08T11:16:39;25.10;1.00
20463;DHT22;10390;53.566;9.980;2024-03-08T11:21:36;25.10;1.00
20463;DHT22;10390;53.566;9.980;2024-03-08T11:26:37;25.20;1.00
20463;DHT22;10390;53.566;9.980;2024-03-08T11:32:16;25.10;1.00
20463;DHT22;10390;53.566;9.980;2024-03-08T11:34:48;25.10;1.00
20463;DHT22;10390;53.566;9.980;2024-03-08T11:37:19;25.10;1.00
20463;DHT22;10390;53.566;9.980;2024-03-08T11:39:50;25.10;1.00
20463;DHT22;10390;53.566;9.980;2024-03-08T11:42:16;25.10;1.00
20463;DHT22;10390;53.566;9.980;2024-03-08T11:44:43;25.10;1.00
20463;DHT22;10390;53.566;9.980;2024-03-08T11:47:11;25.10;1.00
20463;DHT22;10390;53.566;9.980;2024-03-08T11:49:37;25.10;1.00
20463;DHT22;10390;53.566;9.980;2024-03-08T11:52:04;25.10;1.00
20463;DHT22;10390;53.566;9.980;2024-03-08T11:54:30;25.10;1.00
20463;DHT22;10390;53.566;9.980;2024-03-08T11:56:56;25.10;1.00
20463;DHT22;10390;53.566;9.980;2024-03-08T11:59:27;25.10;1.00
20463;DHT22;10390;53.566;9.980;2024-03-08T12:02:01;25.10;1.00
20463;DHT22;10390;53.566;9.980;2024-03-08T12:04:27;25.10;1.00
20463;DHT22;10390;53.566;9.980;2024-03-08T12:06:53;25.10;1.00
20463;DHT22;10390;53.566;9.980;2024-03-08T12:09:18;25.10;1.00
20463;DHT22;10390;53.566;9.980;2024-03-08T12:11:47;25.10;1.00
20463;DHT22;10390;53.566;9.980;2024-03-08T12:14:13;25.00;1.00
20463;DHT22;10390;53.566;9.980;2024-03-08T12:16:38;25.10;1.00
20463;DHT22;10390;53.566;9.980;2024-03-08T12:19:04;25.10;1.00
20463;DHT22;10390;53.566;9.980;2024-03-08T12:21:31;25.10;1.00
20463;DHT22;10390;53.566;9.980;2024-03-08T12:24:04;25.10;1.00
20463;DHT22;10390;53.566;9.980;2024-03-08T12:26:35;25.10;1.00
20463;DHT22;10390;53.566;9.980;2024-03-08T12:29:21;25.10;1.00
20463;DHT22;10390;53.566;9.980;2024-03-08T12:31:52;25.10;1.00
20463;DHT22;10390;53.566;9.980;2024-03-08T12:34:18;25.10;1.00
20463;DHT22;10390;53.566;9.980;2024-03-08T12:36:48;25.00;1.00
20463;DHT22;10390;53.566;9.980;2024-03-08T12:39:17;25.00;1.00
20463;DHT22;10390;53.566;9.980;2024-03-08T12:41:48;25.10;1.00
20463;DHT22;10390;53.566;9.980;2024-03-08T12:44:14;25.10;1.00
20463;DHT22;10390;53.566;9.980;2024-03-08T12:46:40;25.10;1.00
20463;DHT22;10390;53.566;9.980;2024-03-08T12:49:09;25.00;1.00
20463;DHT22;10390;53.566;9.980;2024-03-08T12:51:35;25.10;1.00
20463;DHT22;10390;53.566;9.980;2024-03-08T12:54:02;25.10;1.00
20463;DHT22;10390;53.566;9.980;2024-03-08T12:56:32;25.10;1.00
20463;DHT22;10390;53.566;9.980;2024-03-08T12:58:59;25.00;1.00
20463;DHT22;10390;53.566;9.980;2024-03-08T13:01:25;25.00;1.00
20463;DHT22;10390;53.566;9.980;2024-03-08T13:03:52;25.00;1.00
20463;DHT22;10390;53.566;9.980;2024-03-08T13:06:18;25.00;1.00
20463;DHT22;10390;53.566;9.980;2024-03-08T13:08:47;24.90;1.00
20463;DHT22;10390;53.566;9.980;2024-03-08T13:11:13;24.90;1.00
20463;DHT22;10390;53.566;9.980;2024-03-08T13:13:42;24.90;1.00
20463;DHT22;10390;53.566;9.980;2024-03-08T13:16:10;24.90;1.00
20463;DHT22;10390;53.566;9.980;2024-03-08T13:18:37;24.90;1.00
20463;DHT22;10390;53.566;9.980;2024-03-08T13:21:03;24.90;1.00
20463;DHT22;10390;53.566;9.980;2024-03-08T13:23:36;24.90;1.00
20463;DHT22;10390;53.566;9.980;2024-03-08T13:26:09;24.90;1.00
20463;DHT22;10390;53.566;9.980;2024-03-08T13:28:35;24.90;1.00
20463;DHT22;10390;53.566;9.980;2024-03-08T13:31:04;24.90;1.00
20463;DHT22;10390;53.566;9.980;2024-03-08T13:33:35;24.90;1.00
20463;DHT22;10390;53.566;9.980;2024-03-08T13:36:02;24.80;1.00
20463;DHT22;10390;53.566;9.980;2024-03-08T13:38:34;24.90;1.00
20463;DHT22;10390;53.566;9.980;2024-03-08T13:41:01;24.80;1.00
20463;DHT22;10390;53.566;9.980;2024-03-08T13:43:28;24.90;1.00
20463;DHT22;10390;53.566;9.980;2024-03-08T13:45:54;24.80;1.00
20463;DHT22;10390;53.566;9.980;2024-03-08T13:48:20;24.80;1.00
20463;DHT22;10390;53.566;9.980;2024-03-08T13:50:48;24.80;1.00
20463;DHT22;10390;53.566;9.980;2024-03-08T13:53:14;24.80;1.00
20463;DHT22;10390;53.566;9.980;2024-03-08T13:55:40;24.80;1.00
20463;DHT22;10390;53.566;9.980;2024-03-08T13:58:06;24.80;1.00
20463;DHT22;10390;53.566;9.980;2024-03-08T14:00:35;24.80;1.00
20463;DHT22;10390;53.566;9.980;2024-03-08T14:03:01;24.70;1.00
20463;DHT22;10390;53.566;9.980;2024-03-08T14:05:31;24.70;1.00
20463;DHT22;10390;53.566;9.980;2024-03-08T14:08:00;24.70;1.00
20463;DHT22;10390;53.566;9.980;2024-03-08T14:10:29;24.70;1.00
20463;DHT22;10390;53.566;9.980;2024-03-08T14:12:57;24.70;1.00
20463;DHT22;10390;53.566;9.980;2024-03-08T14:15:22;24.70;1.00
20463;DHT22;10390;53.566;9.980;2024-03-08T14:17:57;24.70;1.00
20463;DHT22;10390;53.566;9.980;2024-03-08T14:20:23;24.60;1.00
20463;DHT22;10390;53.566;9.980;2024-03-08T14:22:55;24.60;1.00
20463;DHT22;10390;53.566;9.980;2024-03-08T14:25:21;24.60;1.00
20463;DHT22;10390;53.566;9.980;2024-03-08T14:27:50;24.50;1.00
20463;DHT22;10390;53.566;9.980;2024-03-08T14:30:18;24.50;1.00
20463;DHT22;10390;53.566;9.980;2024-03-08T14:33:01;24.50;1.00
20463;DHT22;10390;53.566;9.980;2024-03-08T14:35:27;24.50;1.00
20463;DHT22;10390;53.566;9.980;2024-03-08T14:37:55;24.50;1.00
20463;DHT22;10390;53.566;9.980;2024-03-08T14:40:22;24.50;1.00
20463;DHT22;10390;53.566;9.980;2024-03-08T14:42:49;24.40;1.00
20463;DHT22;10390;53.566;9.980;2024-03-08T14:45:15;24.40;1.00
20463;DHT22;10390;53.566;9.980;2024-03-08T14:47:42;24.40;1.00
20463;DHT22;10390;53.566;9.980;2024-03-08T14:50:08;24.40;1.00
20463;DHT22;10390;53.566;9.980;2024-03-08T14:52:35;24.40;1.00
20463;DHT22;10390;53.566;9.980;2024-03-08T14:55:01;24.40;1.00
20463;DHT22;10390;53.566;9.980;2024-03-08T14:57:28;24.40;1.00
20463;DHT22;10390;53.566;9.980;2024-03-08T14:59:54;24.40;1.00
20463;DHT22;10390;53.566;9.980;2024-03-08T15:02:19;24.40;1.00
20463;DHT22;10390;53.566;9.980;2024-03-08T15:04:47;24.40;1.00
20463;DHT22;10390;53.566;9.980;2024-03-08T15:07:22;24.30;1.00
20463;DHT22;10390;53.566;9.980;2024-03-08T15:09:48;24.40;1.00
20463;DHT22;10390;53.566;9.980;2024-03-08T15:12:13;24.30;1.00
20463;DHT22;10390;53.566;9.980;2024-03-08T15:14:40;24.30;1.00
20463;DHT22;10390;53.566;9.980;2024-03-08T15:17:09;24.30;1.00
20463;DHT22;10390;53.566;9.980;2024-03-08T15:19:38;24.30;1.00
20463;DHT22;10390;53.566;9.980;2024-03-08T15:22:04;24.30;1.00
20463;DHT22;10390;53.566;9.980;2024-03-08T15:24:29;24.30;1.00
20463;DHT22;10390;53.566;9.980;2024-03-08T15:26:55;24.30;1.00
20463;DHT22;10390;53.566;9.980;2024-03-08T15:29:22;24.30;1.00
20463;DHT22;10390;53.566;9.980;2024-03-08T15:31:52;24.20;1.00
20463;DHT22;10390;53.566;9.980;2024-03-08T15:34:20;24.20;1.00
20463;DHT22;10390;53.566;9.980;2024-03-08T15:36:49;24.20;1.00
20463;DHT22;10390;53.566;9.980;2024-03-08T15:39:19;24.20;1.00
20463;DHT22;10390;53.566;9.980;2024-03-08T15:41:49;24.20;1.00
20463;DHT22;10390;53.566;9.980;2024-03-08T15:44:15;24.20;1.00
20463;DHT22;10390;53.566;9.980;2024-03-08T15:46:41;24.20;1.00
20463;DHT22;10390;53.566;9.980;2024-03-08T15:49:07;24.20;1.00
20463;DHT22;10390;53.566;9.980;2024-03-08T15:51:32;24.30;1.00
20463;DHT22;10390;53.566;9.980;2024-03-08T15:53:58;24.30;1.00
20463;DHT22;10390;53.566;9.980;2024-03-08T15:56:24;24.30;1.00
20463;DHT22;10390;53.566;9.980;2024-03-08T15:58:51;24.30;1.00